Time;durP1;ratioP1;P1;durP2;ratioP2;P2;SDS_P1;SDS_P2;PMS_P1;PMS_P2;Temp;Humidity;BMP_temperature;BMP_pressure;BME280_temperature;BME280_humidity;BME280_pressure;Samples;Min_cycle;Max_cycle;Signal;HPM_P1;HPM_P2
2021/01/17 00:00:58;;;;;;;;;;;;;;;;;;4995153;28;19944;-72
2021/01/17 00:03:24;;;;;;;;;;;;;;;;;;4996736;28;19984;-68
2021/01/17 00:05:50;;;;;;;;;;;;;;;;;;4995083;28;20012;-66
2021/01/17 00:08:16;;;;;;;;;;;;;;;;;;4994412;28;19909;-67
2021/01/17 00:10:42;;;;;;;;;;;;;;;;;;4982386;28;19917;-77
2021/01/17 00:13:08;;;;;;;;;;;;;;;;;;4997333;28;19956;-75
2021/01/17 00:15:34;;;;;;;;;;;;;;;;;;4990458;28;19945;-76
2021/01/17 00:17:59;;;;;;;;;;;;;;;;;;4980993;28;19925;-74
2021/01/17 00:20:25;;;;;;;;;;;;;;;;;;4991517;28;19934;-67
2021/01/17 00:22:53;;;;;;;;;;;;;;;;;;4993180;28;19914;-67
2021/01/17 00:25:20;;;;;;;;;;;;;;;;;;4994157;28;19909;-67
2021/01/17 00:27:46;;;;;;;;;;;;;;;;;;4993497;28;20373;-67
2021/01/17 00:30:12;;;;;;;;;;;;;;;;;;4992620;28;19918;-67
2021/01/17 00:32:37;;;;;;;;;;;;;;;;;;4992993;28;19969;-66
2021/01/17 00:35:03;;;;;;;;;;;;;;;;;;4996772;28;19996;-66
2021/01/17 00:37:29;;;;;;;;;;;;;;;;;;4993684;28;20316;-66
2021/01/17 00:39:55;;;;;;;;;;;;;;;;;;4994242;28;19956;-66
2021/01/17 00:42:21;;;;;;;;;;;;;;;;;;4993323;28;19910;-66
2021/01/17 00:44:47;;;;;;;;;;;;;;;;;;4992578;28;20285;-67
2021/01/17 00:47:13;;;;;;;;;;;;;;;;;;4994498;28;19910;-67
2021/01/17 00:49:39;;;;;;;;;;;;;;;;;;4984879;28;19949;-67
2021/01/17 00:52:04;;;;;;;;;;;;;;;;;;4989439;28;19917;-67
2021/01/17 00:54:30;;;;;;;;;;;;;;;;;;5008903;28;19910;-66
2021/01/17 00:56:56;;;;;;;;;;;;;;;;;;4992833;28;19959;-67
2021/01/17 00:59:22;;;;;;;;;;;;;;;;;;4994439;28;20242;-67
2021/01/17 01:01:48;;;;;;;;;;;;;;;;;;4991965;28;19906;-66
2021/01/17 01:04:14;;;;;;;;;;;;;;;;;;5004422;28;20008;-66
2021/01/17 01:06:40;;;;;;;;;;;;;;;;;;4990653;28;19997;-66
2021/01/17 01:09:05;;;;;;;;;;;;;;;;;;4995574;28;20350;-66
2021/01/17 01:11:31;;;;;;;;;;;;;;;;;;4992586;28;19914;-66
2021/01/17 01:13:57;;;;;;;;;;;;;;;;;;4989513;28;20419;-67
2021/01/17 01:16:23;;;;;;;;;;;;;;;;;;4992198;28;19909;-66
2021/01/17 01:18:49;;;;;;;;;;;;;;;;;;4993061;28;19961;-66
2021/01/17 01:21:15;;;;;;;;;;;;;;;;;;4993224;28;20281;-66
2021/01/17 01:23:41;;;;;;;;;;;;;;;;;;4993653;28;19917;-65
2021/01/17 01:26:07;;;;;;;;;;;;;;;;;;4986377;28;19966;-66
2021/01/17 01:28:32;;;;;;;;;;;;;;;;;;4988314;28;19938;-66
2021/01/17 01:30:58;;;;;;;;;;;;;;;;;;4992779;28;20285;-66
2021/01/17 01:33:24;;;;;;;;;;;;;;;;;;4995500;28;19913;-66
2021/01/17 01:35:50;;;;;;;;;;;;;;;;;;4992869;28;19963;-65
2021/01/17 01:38:16;;;;;;;;;;;;;;;;;;4992775;28;19925;-65
2021/01/17 01:40:42;;;;;;;;;;;;;;;;;;4993232;28;19925;-65
2021/01/17 01:43:08;;;;;;;;;;;;;;;;;;4994753;28;19917;-66
2021/01/17 01:45:34;;;;;;;;;;;;;;;;;;4986519;28;19953;-66
2021/01/17 01:47:59;;;;;;;;;;;;;;;;;;4987118;28;19913;-66
2021/01/17 01:50:25;;;;;;;;;;;;;;;;;;4992423;28;19910;-66
2021/01/17 01:52:51;;;;;;;;;;;;;;;;;;4988571;28;19914;-66
2021/01/17 01:55:17;;;;;;;;;;;;;;;;;;4993227;28;20277;-67
2021/01/17 01:57:43;;;;;;;;;;;;;;;;;;4994083;28;19921;-67
2021/01/17 02:00:09;;;;;;;;;;;;;;;;;;4987972;28;20000;-66
2021/01/17 02:02:35;;;;;;;;;;;;;;;;;;4992463;28;19912;-66
2021/01/17 02:05:01;;;;;;;;;;;;;;;;;;4992282;28;19914;-66
2021/01/17 02:07:27;;;;;;;;;;;;;;;;;;4991248;28;20361;-66
2021/01/17 02:09:52;;;;;;;;;;;;;;;;;;4992155;28;19925;-66
2021/01/17 02:12:18;;;;;;;;;;;;;;;;;;4991860;28;19913;-70
2021/01/17 02:14:44;;;;;;;;;;;;;;;;;;4991496;28;20332;-66
2021/01/17 02:17:10;;;;;;;;;;;;;;;;;;4992682;28;19925;-66
2021/01/17 02:19:36;;;;;;;;;;;;;;;;;;4991563;28;20372;-66
2021/01/17 02:22:02;;;;;;;;;;;;;;;;;;5002508;28;19914;-66
2021/01/17 02:24:28;;;;;;;;;;;;;;;;;;4985332;28;19937;-65
2021/01/17 02:26:53;;;;;;;;;;;;;;;;;;4989068;28;20330;-65
2021/01/17 02:29:19;;;;;;;;;;;;;;;;;;4989993;28;19910;-66
2021/01/17 02:31:45;;;;;;;;;;;;;;;;;;4992153;28;19909;-65
2021/01/17 02:34:11;;;;;;;;;;;;;;;;;;4990841;28;19909;-65
2021/01/17 02:36:37;;;;;;;;;;;;;;;;;;4982350;28;19910;-66
2021/01/17 02:39:03;;;;;;;;;;;;;;;;;;4993120;28;19976;-65
2021/01/17 02:41:29;;;;;;;;;;;;;;;;;;4991597;28;19909;-65
2021/01/17 02:43:55;;;;;;;;;;;;;;;;;;4983822;28;19914;-66
2021/01/17 02:46:20;;;;;;;;;;;;;;;;;;4991075;28;19956;-65
2021/01/17 02:48:46;;;;;;;;;;;;;;;;;;4983044;28;19910;-66
2021/01/17 02:51:12;;;;;;;;;;;;;;;;;;4992287;28;19905;-66
2021/01/17 02:53:38;;;;;;;;;;;;;;;;;;4990230;28;20428;-65
2021/01/17 02:56:04;;;;;;;;;;;;;;;;;;4991239;28;20004;-66
2021/01/17 02:58:30;;;;;;;;;;;;;;;;;;4980662;28;20020;-66
2021/01/17 03:00:57;;;;;;;;;;;;;;;;;;4998741;28;19953;-66
2021/01/17 03:03:22;;;;;;;;;;;;;;;;;;4994148;28;19916;-65
2021/01/17 03:05:48;;;;;;;;;;;;;;;;;;4986079;28;20000;-67
2021/01/17 03:08:14;;;;;;;;;;;;;;;;;;4991045;28;19972;-65
2021/01/17 03:10:40;;;;;;;;;;;;;;;;;;4991407;28;19917;-65
2021/01/17 03:13:06;;;;;;;;;;;;;;;;;;4993440;28;19909;-67
2021/01/17 03:15:32;;;;;;;;;;;;;;;;;;4984507;28;19933;-67
2021/01/17 03:17:58;;;;;;;;;;;;;;;;;;4993276;28;20001;-67
2021/01/17 03:20:23;;;;;;;;;;;;;;;;;;4991731;28;19910;-67
2021/01/17 03:22:49;;;;;;;;;;;;;;;;;;4992848;28;19906;-67
2021/01/17 03:25:15;;;;;;;;;;;;;;;;;;4991146;28;19949;-67
2021/01/17 03:27:41;;;;;;;;;;;;;;;;;;4995837;28;20328;-67
2021/01/17 03:30:07;;;;;;;;;;;;;;;;;;4987655;28;19910;-67
2021/01/17 03:32:33;;;;;;;;;;;;;;;;;;4994386;28;19917;-67
2021/01/17 03:34:59;;;;;;;;;;;;;;;;;;4992168;28;20238;-67
2021/01/17 03:37:25;;;;;;;;;;;;;;;;;;4986916;28;20273;-66
2021/01/17 03:39:50;;;;;;;;;;;;;;;;;;4993094;28;19917;-67
2021/01/17 03:42:16;;;;;;;;;;;;;;;;;;4991185;28;19926;-66
2021/01/17 03:44:42;;;;;;;;;;;;;;;;;;4992544;28;20012;-66
2021/01/17 03:47:08;;;;;;;;;;;;;;;;;;4994899;28;19939;-67
2021/01/17 03:49:34;;;;;;;;;;;;;;;;;;4990779;28;20349;-66
2021/01/17 03:52:00;;;;;;;;;;;;;;;;;;4995369;28;19914;-67
2021/01/17 03:54:26;;;;;;;;;;;;;;;;;;4994447;28;19913;-66
2021/01/17 03:56:53;;;;;;;;;;;;;;;;;;4993035;28;19953;-66
2021/01/17 03:59:19;;;;;;;;;;;;;;;;;;4994441;28;19906;-66
2021/01/17 04:01:45;;;;;;;;;;;;;;;;;;4995310;28;19910;-66
2021/01/17 04:04:11;;;;;;;;;;;;;;;;;;4994410;28;20416;-66
2021/01/17 04:06:37;;;;;;;;;;;;;;;;;;4995429;28;19956;-66
2021/01/17 04:09:03;;;;;;;;;;;;;;;;;;4994633;28;20324;-66
2021/01/17 04:11:28;;;;;;;;;;;;;;;;;;4994608;28;19940;-66
2021/01/17 04:13:54;;;;;;;;;;;;;;;;;;4994181;28;20005;-66
2021/01/17 04:16:20;;;;;;;;;;;;;;;;;;4996082;28;19952;-66
2021/01/17 04:18:46;;;;;;;;;;;;;;;;;;4995441;28;19960;-66
2021/01/17 04:21:12;;;;;;;;;;;;;;;;;;4994600;28;19921;-66
2021/01/17 04:23:38;;;;;;;;;;;;;;;;;;4995093;28;20008;-66
2021/01/17 04:26:04;;;;;;;;;;;;;;;;;;4991910;28;21185;-66
2021/01/17 04:28:30;;;;;;;;;;;;;;;;;;4987726;28;20064;-66
2021/01/17 04:30:55;;;;;;;;;;;;;;;;;;4992966;28;19910;-66
2021/01/17 04:33:21;;;;;;;;;;;;;;;;;;4995526;28;20270;-66
2021/01/17 04:35:47;;;;;;;;;;;;;;;;;;4994205;28;19910;-66
2021/01/17 04:38:13;;;;;;;;;;;;;;;;;;4997088;28;19917;-66
2021/01/17 04:40:39;;;;;;;;;;;;;;;;;;4989611;28;20411;-67
2021/01/17 04:43:05;;;;;;;;;;;;;;;;;;4989501;28;19914;-66
2021/01/17 04:45:31;;;;;;;;;;;;;;;;;;4992704;28;19997;-66
2021/01/17 04:47:57;;;;;;;;;;;;;;;;;;4992810;28;20349;-66
2021/01/17 04:50:23;;;;;;;;;;;;;;;;;;4988354;28;19913;-73
2021/01/17 04:52:49;;;;;;;;;;;;;;;;;;4995097;28;19905;-75
2021/01/17 04:55:15;;;;;;;;;;;;;;;;;;4993889;28;19917;-74
2021/01/17 04:57:40;;;;;;;;;;;;;;;;;;4997134;28;19928;-74
2021/01/17 05:00:06;;;;;;;;;;;;;;;;;;4994017;28;19910;-75
2021/01/17 05:02:33;;;;;;;;;;;;;;;;;;5001613;28;19956;-75
2021/01/17 05:04:59;;;;;;;;;;;;;;;;;;4998978;28;19949;-66
2021/01/17 05:07:25;;;;;;;;;;;;;;;;;;4995858;28;19906;-66
2021/01/17 05:09:50;;;;;;;;;;;;;;;;;;4994009;28;19917;-66
2021/01/17 05:12:16;;;;;;;;;;;;;;;;;;5001939;28;19959;-66
2021/01/17 05:14:43;;;;;;;;;;;;;;;;;;4999666;28;19910;-66
2021/01/17 05:17:09;;;;;;;;;;;;;;;;;;4993924;28;19918;-66
2021/01/17 05:19:34;;;;;;;;;;;;;;;;;;4993278;28;19917;-74
2021/01/17 05:22:00;;;;;;;;;;;;;;;;;;4992954;28;19914;-73
2021/01/17 05:24:26;;;;;;;;;;;;;;;;;;4986087;28;19920;-72
2021/01/17 05:26:52;;;;;;;;;;;;;;;;;;4992731;28;19918;-75
2021/01/17 05:29:18;;;;;;;;;;;;;;;;;;4995547;28;20005;-75
2021/01/17 05:31:44;;;;;;;;;;;;;;;;;;4988174;28;19910;-75
2021/01/17 05:34:10;;;;;;;;;;;;;;;;;;4998271;28;19913;-66
2021/01/17 05:36:36;;;;;;;;;;;;;;;;;;4990860;28;19994;-66
2021/01/17 05:39:02;;;;;;;;;;;;;;;;;;4991673;28;20336;-66
2021/01/17 05:41:28;;;;;;;;;;;;;;;;;;4987810;28;19917;-65
2021/01/17 05:43:54;;;;;;;;;;;;;;;;;;4994524;28;20008;-65
2021/01/17 05:46:20;;;;;;;;;;;;;;;;;;4992199;28;19963;-66
2021/01/17 05:48:46;;;;;;;;;;;;;;;;;;4988921;28;19976;-73
2021/01/17 05:51:12;;;;;;;;;;;;;;;;;;4990425;28;19914;-73
2021/01/17 05:53:37;;;;;;;;;;;;;;;;;;4994275;28;19910;-74
2021/01/17 05:56:03;;;;;;;;;;;;;;;;;;4992567;28;19995;-74
2021/01/17 05:58:30;;;;;;;;;;;;;;;;;;4993379;28;20337;-74
2021/01/17 06:00:56;;;;;;;;;;;;;;;;;;4989783;28;19917;-69
2021/01/17 06:03:22;;;;;;;;;;;;;;;;;;5000748;28;19913;-74
2021/01/17 06:05:49;;;;;;;;;;;;;;;;;;4994878;28;19971;-66
2021/01/17 06:08:15;;;;;;;;;;;;;;;;;;4988807;28;19910;-66
2021/01/17 06:10:40;;;;;;;;;;;;;;;;;;4992719;28;19964;-72
2021/01/17 06:13:06;;;;;;;;;;;;;;;;;;4992940;28;19918;-68
2021/01/17 06:15:32;;;;;;;;;;;;;;;;;;4992441;28;19913;-67
2021/01/17 06:17:58;;;;;;;;;;;;;;;;;;4993082;28;19971;-66
2021/01/17 06:20:24;;;;;;;;;;;;;;;;;;4992475;28;19914;-66
2021/01/17 06:22:50;;;;;;;;;;;;;;;;;;4993129;28;19917;-66
2021/01/17 06:25:16;;;;;;;;;;;;;;;;;;4992274;28;20505;-69
2021/01/17 06:27:42;;;;;;;;;;;;;;;;;;4992203;28;19913;-66
2021/01/17 06:30:07;;;;;;;;;;;;;;;;;;4986499;28;19995;-66
2021/01/17 06:32:33;;;;;;;;;;;;;;;;;;4995849;28;20022;-66
2021/01/17 06:34:59;;;;;;;;;;;;;;;;;;4993442;28;19912;-66
2021/01/17 06:37:25;;;;;;;;;;;;;;;;;;4992029;28;19922;-67
2021/01/17 06:39:51;;;;;;;;;;;;;;;;;;4991483;28;20285;-68
2021/01/17 06:42:17;;;;;;;;;;;;;;;;;;4992341;28;19920;-67
2021/01/17 06:44:43;;;;;;;;;;;;;;;;;;4991663;28;20340;-66
2021/01/17 06:47:09;;;;;;;;;;;;;;;;;;4989324;28;19914;-67
2021/01/17 06:49:35;;;;;;;;;;;;;;;;;;4995393;28;20362;-71
2021/01/17 06:52:01;;;;;;;;;;;;;;;;;;4992066;28;19937;-68
2021/01/17 06:54:26;;;;;;;;;;;;;;;;;;4993815;28;20105;-67
2021/01/17 06:56:53;;;;;;;;;;;;;;;;;;4992985;28;19909;-66
2021/01/17 06:59:19;;;;;;;;;;;;;;;;;;4990697;28;19988;-73
2021/01/17 07:01:45;;;;;;;;;;;;;;;;;;4991904;28;20000;-67
2021/01/17 07:04:11;;;;;;;;;;;;;;;;;;4993434;28;19940;-67
2021/01/17 07:06:37;;;;;;;;;;;;;;;;;;4989436;28;19906;-68
2021/01/17 07:09:03;;;;;;;;;;;;;;;;;;4979076;28;20329;-69
2021/01/17 07:11:29;;;;;;;;;;;;;;;;;;4987440;28;19913;-67
2021/01/17 07:13:54;;;;;;;;;;;;;;;;;;4991000;28;19964;-69
2021/01/17 07:16:20;;;;;;;;;;;;;;;;;;4990419;28;19918;-67
2021/01/17 07:18:46;;;;;;;;;;;;;;;;;;4991207;28;19972;-67
2021/01/17 07:21:12;;;;;;;;;;;;;;;;;;4991874;28;20380;-73
2021/01/17 07:23:38;;;;;;;;;;;;;;;;;;4992079;28;19910;-68
2021/01/17 07:26:04;;;;;;;;;;;;;;;;;;4984950;28;19933;-69
2021/01/17 07:28:30;;;;;;;;;;;;;;;;;;4999233;28;20038;-68
2021/01/17 07:30:56;;;;;;;;;;;;;;;;;;4991764;28;19916;-68
2021/01/17 07:33:21;;;;;;;;;;;;;;;;;;4991467;28;20152;-69
2021/01/17 07:35:47;;;;;;;;;;;;;;;;;;4989669;28;19909;-67
2021/01/17 07:38:13;;;;;;;;;;;;;;;;;;4988609;28;19918;-67
2021/01/17 07:40:49;;;;;;;;;;;;;;;;;;4989718;28;20008;-67
2021/01/17 07:43:15;;;;;;;;;;;;;;;;;;4992082;28;19914;-67
2021/01/17 07:45:41;;;;;;;;;;;;;;;;;;4997564;28;20322;-67
2021/01/17 07:48:07;;;;;;;;;;;;;;;;;;4991786;28;19913;-66
2021/01/17 07:50:33;;;;;;;;;;;;;;;;;;4989553;28;19910;-66
2021/01/17 07:52:59;;;;;;;;;;;;;;;;;;4991278;28;19913;-67
2021/01/17 07:55:25;;;;;;;;;;;;;;;;;;4990750;28;19948;-66
2021/01/17 07:57:51;;;;;;;;;;;;;;;;;;4992321;28;19914;-66
2021/01/17 08:00:17;;;;;;;;;;;;;;;;;;4991867;28;19941;-66
2021/01/17 08:02:43;;;;;;;;;;;;;;;;;;4992419;28;19906;-66
2021/01/17 08:05:09;;;;;;;;;;;;;;;;;;4987180;28;19909;-66
2021/01/17 08:07:35;;;;;;;;;;;;;;;;;;4983736;28;19965;-66
2021/01/17 08:10:00;;;;;;;;;;;;;;;;;;4989864;28;19914;-65
2021/01/17 08:12:26;;;;;;;;;;;;;;;;;;4992269;28;19949;-66
2021/01/17 08:14:52;;;;;;;;;;;;;;;;;;4989196;28;19922;-67
2021/01/17 08:17:18;;;;;;;;;;;;;;;;;;5001939;28;20268;-66
2021/01/17 08:19:44;;;;;;;;;;;;;;;;;;4998502;28;19917;-66
2021/01/17 08:22:10;;;;;;;;;;;;;;;;;;4993400;28;19910;-67
2021/01/17 08:24:36;;;;;;;;;;;;;;;;;;4994842;28;19909;-66
2021/01/17 08:27:02;;;;;;;;;;;;;;;;;;4998627;28;19909;-66
2021/01/17 08:29:28;;;;;;;;;;;;;;;;;;4998275;28;19968;-66
2021/01/17 08:31:54;;;;;;;;;;;;;;;;;;4994116;28;19916;-67
2021/01/17 08:34:19;;;;;;;;;;;;;;;;;;4997296;28;19913;-68
2021/01/17 08:36:45;;;;;;;;;;;;;;;;;;4993749;28;19957;-67
2021/01/17 08:39:11;;;;;;;;;;;;;;;;;;4998893;28;19937;-67
2021/01/17 08:41:39;;;;;;;;;;;;;;;;;;4996922;28;19936;-67
2021/01/17 08:44:05;;;;;;;;;;;;;;;;;;5002480;28;19921;-68
2021/01/17 08:46:31;;;;;;;;;;;;;;;;;;4994076;28;19909;-67
2021/01/17 08:48:57;;;;;;;;;;;;;;;;;;4990850;28;19910;-67
2021/01/17 08:51:23;;;;;;;;;;;;;;;;;;4992408;28;19909;-67
2021/01/17 08:53:49;;;;;;;;;;;;;;;;;;4993988;28;19909;-67
2021/01/17 08:56:18;;;;;;;;;;;;;;;;;;4991426;28;20274;-67
2021/01/17 08:58:44;;;;;;;;;;;;;;;;;;4994682;28;19917;-66
2021/01/17 09:01:10;;;;;;;;;;;;;;;;;;4995362;28;19932;-68
2021/01/17 09:03:36;;;;;;;;;;;;;;;;;;4993852;28;20330;-66
2021/01/17 09:06:02;;;;;;;;;;;;;;;;;;4992150;28;20285;-66
2021/01/17 09:08:28;;;;;;;;;;;;;;;;;;4992364;28;19909;-66
2021/01/17 09:10:54;;;;;;;;;;;;;;;;;;4993501;28;19913;-66
2021/01/17 09:13:20;;;;;;;;;;;;;;;;;;4995706;28;19968;-67
2021/01/17 09:15:45;;;;;;;;;;;;;;;;;;4989291;28;20238;-67
2021/01/17 09:18:12;;;;;;;;;;;;;;;;;;4994227;28;20325;-68
2021/01/17 09:20:37;;;;;;;;;;;;;;;;;;4984472;28;20357;-69
2021/01/17 09:23:03;;;;;;;;;;;;;;;;;;4989952;28;19906;-65
2021/01/17 09:25:29;;;;;;;;;;;;;;;;;;4993067;28;19918;-69
2021/01/17 09:27:55;;;;;;;;;;;;;;;;;;4992694;28;20001;-68
2021/01/17 09:30:21;;;;;;;;;;;;;;;;;;4993718;28;19917;-67
2021/01/17 09:32:47;;;;;;;;;;;;;;;;;;5003743;28;19909;-67
2021/01/17 09:35:13;;;;;;;;;;;;;;;;;;4998912;28;20373;-68
2021/01/17 09:37:38;;;;;;;;;;;;;;;;;;4993572;28;19918;-67
2021/01/17 09:40:04;;;;;;;;;;;;;;;;;;4992985;28;19909;-67
2021/01/17 09:42:30;;;;;;;;;;;;;;;;;;4993638;28;19956;-67
2021/01/17 09:44:56;;;;;;;;;;;;;;;;;;4991865;28;19914;-67
2021/01/17 09:47:22;;;;;;;;;;;;;;;;;;4994857;28;19920;-68
2021/01/17 09:49:48;;;;;;;;;;;;;;;;;;4984895;28;19957;-67
2021/01/17 09:52:14;;;;;;;;;;;;;;;;;;4994010;28;20010;-67
2021/01/17 09:54:40;;;;;;;;;;;;;;;;;;4990452;28;19906;-67
2021/01/17 09:57:05;;;;;;;;;;;;;;;;;;4989417;28;20288;-66
2021/01/17 09:59:31;;;;;;;;;;;;;;;;;;4995169;28;19949;-67
2021/01/17 10:01:58;;;;;;;;;;;;;;;;;;4992033;28;20350;-66
2021/01/17 10:04:24;;;;;;;;;;;;;;;;;;4984580;28;20008;-66
2021/01/17 10:06:50;;;;;;;;;;;;;;;;;;4988594;28;19941;-69
2021/01/17 10:09:16;;;;;;;;;;;;;;;;;;4982916;28;19909;-68
2021/01/17 10:11:42;;;;;;;;;;;;;;;;;;4990862;28;19972;-66
2021/01/17 10:14:08;;;;;;;;;;;;;;;;;;4991499;28;20362;-67
2021/01/17 10:16:34;;;;;;;;;;;;;;;;;;4990723;28;19996;-67
2021/01/17 10:19:00;;;;;;;;;;;;;;;;;;4993801;28;19937;-67
2021/01/17 10:21:25;;;;;;;;;;;;;;;;;;4990667;28;19933;-67
2021/01/17 10:23:51;;;;;;;;;;;;;;;;;;4993980;28;19914;-67
2021/01/17 10:26:17;;;;;;;;;;;;;;;;;;4986688;28;20388;-67
2021/01/17 10:28:43;;;;;;;;;;;;;;;;;;4995474;28;19914;-67
2021/01/17 10:31:09;;;;;;;;;;;;;;;;;;4998681;28;19909;-66
2021/01/17 10:33:35;;;;;;;;;;;;;;;;;;4991462;28;20384;-68
2021/01/17 10:36:01;;;;;;;;;;;;;;;;;;4990351;28;19910;-67
2021/01/17 10:38:27;;;;;;;;;;;;;;;;;;4991178;28;20362;-67
2021/01/17 10:40:53;;;;;;;;;;;;;;;;;;4986738;28;19918;-68
2021/01/17 10:43:19;;;;;;;;;;;;;;;;;;4995053;28;19914;-67
2021/01/17 10:45:44;;;;;;;;;;;;;;;;;;4990005;28;20284;-69
2021/01/17 10:48:10;;;;;;;;;;;;;;;;;;4998086;28;19918;-70
2021/01/17 10:50:36;;;;;;;;;;;;;;;;;;4993598;28;20008;-67
2021/01/17 10:53:02;;;;;;;;;;;;;;;;;;4993623;28;20000;-67
2021/01/17 10:55:28;;;;;;;;;;;;;;;;;;4984036;28;19936;-70
2021/01/17 10:57:54;;;;;;;;;;;;;;;;;;4988709;28;19918;-69
2021/01/17 11:00:20;;;;;;;;;;;;;;;;;;4991155;28;20014;-68
2021/01/17 11:02:46;;;;;;;;;;;;;;;;;;4988511;28;20373;-70
2021/01/17 11:05:12;;;;;;;;;;;;;;;;;;4990782;28;19913;-67
2021/01/17 11:07:38;;;;;;;;;;;;;;;;;;4991269;28;20025;-67
2021/01/17 11:10:04;;;;;;;;;;;;;;;;;;4991154;28;19914;-68
2021/01/17 11:12:29;;;;;;;;;;;;;;;;;;4989151;28;19949;-67
2021/01/17 11:14:55;;;;;;;;;;;;;;;;;;4988929;28;19910;-69
2021/01/17 11:17:21;;;;;;;;;;;;;;;;;;4989082;28;20047;-67
2021/01/17 11:19:47;;;;;;;;;;;;;;;;;;4984319;28;19917;-67
2021/01/17 11:22:13;;;;;;;;;;;;;;;;;;4979880;28;19945;-66
2021/01/17 11:24:39;;;;;;;;;;;;;;;;;;4989535;28;19916;-68
2021/01/17 11:27:05;;;;;;;;;;;;;;;;;;4987869;28;19910;-68
2021/01/17 11:29:30;;;;;;;;;;;;;;;;;;4988227;28;19912;-66
2021/01/17 11:31:56;;;;;;;;;;;;;;;;;;4990751;28;21542;-66
2021/01/17 11:34:22;;;;;;;;;;;;;;;;;;4990395;28;19920;-68
2021/01/17 11:36:48;;;;;;;;;;;;;;;;;;4994347;28;19913;-66
2021/01/17 11:39:14;;;;;;;;;;;;;;;;;;4998254;28;19918;-69
2021/01/17 11:41:41;;;;;;;;;;;;;;;;;;4992043;28;20425;-67
2021/01/17 11:44:07;;;;;;;;;;;;;;;;;;4991327;28;19913;-67
2021/01/17 11:46:33;;;;;;;;;;;;;;;;;;4990197;28;20372;-67
2021/01/17 11:48:59;;;;;;;;;;;;;;;;;;4987471;28;19910;-67
2021/01/17 11:51:25;;;;;;;;;;;;;;;;;;4994087;28;19916;-67
2021/01/17 11:53:51;;;;;;;;;;;;;;;;;;4991501;28;19914;-67
2021/01/17 11:56:17;;;;;;;;;;;;;;;;;;4993648;28;19957;-66
2021/01/17 11:58:43;;;;;;;;;;;;;;;;;;4985959;28;19972;-67
2021/01/17 12:01:08;;;;;;;;;;;;;;;;;;4995230;28;20362;-66
2021/01/17 12:03:34;;;;;;;;;;;;;;;;;;4994425;28;19972;-66
2021/01/17 12:06:00;;;;;;;;;;;;;;;;;;4995157;28;19949;-67
2021/01/17 12:08:26;;;;;;;;;;;;;;;;;;4988021;28;19932;-66
2021/01/17 12:10:52;;;;;;;;;;;;;;;;;;4993986;28;19917;-67
2021/01/17 12:13:18;;;;;;;;;;;;;;;;;;4993347;28;19920;-66
2021/01/17 12:15:44;;;;;;;;;;;;;;;;;;4994675;28;19960;-66
2021/01/17 12:18:10;;;;;;;;;;;;;;;;;;4994217;28;19993;-66
2021/01/17 12:20:36;;;;;;;;;;;;;;;;;;4994746;28;19999;-69
2021/01/17 12:23:02;;;;;;;;;;;;;;;;;;4988422;28;19949;-67
2021/01/17 12:25:28;;;;;;;;;;;;;;;;;;4987558;28;19916;-67
2021/01/17 12:27:54;;;;;;;;;;;;;;;;;;4991888;28;19964;-66
2021/01/17 12:30:19;;;;;;;;;;;;;;;;;;4987442;28;20317;-66
2021/01/17 12:32:45;;;;;;;;;;;;;;;;;;4991366;28;20008;-67
2021/01/17 12:35:11;;;;;;;;;;;;;;;;;;4996069;28;19909;-67
2021/01/17 12:37:37;;;;;;;;;;;;;;;;;;4999387;28;20349;-67
2021/01/17 12:40:03;;;;;;;;;;;;;;;;;;4989146;28;19916;-66
2021/01/17 12:42:29;;;;;;;;;;;;;;;;;;4997619;28;20381;-66
2021/01/17 12:44:55;;;;;;;;;;;;;;;;;;4990094;28;20016;-67
2021/01/17 12:47:20;;;;;;;;;;;;;;;;;;4992711;28;19909;-67
2021/01/17 12:49:46;;;;;;;;;;;;;;;;;;4990755;28;19917;-67
2021/01/17 12:52:12;;;;;;;;;;;;;;;;;;4990701;28;19917;-66
2021/01/17 12:54:38;;;;;;;;;;;;;;;;;;4993831;28;20420;-66
2021/01/17 12:57:04;;;;;;;;;;;;;;;;;;4991553;28;19945;-66
2021/01/17 12:59:30;;;;;;;;;;;;;;;;;;4991690;28;20425;-66
2021/01/17 13:01:56;;;;;;;;;;;;;;;;;;4989308;28;20001;-66
2021/01/17 13:04:22;;;;;;;;;;;;;;;;;;4993049;28;19906;-66
2021/01/17 13:06:49;;;;;;;;;;;;;;;;;;4993304;28;19963;-66
2021/01/17 13:09:15;;;;;;;;;;;;;;;;;;4993930;28;19913;-66
2021/01/17 13:11:40;;;;;;;;;;;;;;;;;;4991985;28;19968;-67
2021/01/17 13:14:06;;;;;;;;;;;;;;;;;;4983709;28;19913;-67
2021/01/17 13:16:32;;;;;;;;;;;;;;;;;;4991960;28;19980;-67
2021/01/17 13:18:58;;;;;;;;;;;;;;;;;;4993409;28;19967;-66
2021/01/17 13:21:24;;;;;;;;;;;;;;;;;;4986886;28;19917;-67
2021/01/17 13:23:50;;;;;;;;;;;;;;;;;;4992969;28;19924;-67
2021/01/17 13:26:16;;;;;;;;;;;;;;;;;;4990708;28;19917;-67
2021/01/17 13:28:42;;;;;;;;;;;;;;;;;;4993423;28;19913;-67
2021/01/17 13:31:08;;;;;;;;;;;;;;;;;;4988458;28;19910;-67
2021/01/17 13:33:34;;;;;;;;;;;;;;;;;;4994618;28;19905;-67
2021/01/17 13:36:00;;;;;;;;;;;;;;;;;;4991780;28;19917;-67
2021/01/17 13:38:26;;;;;;;;;;;;;;;;;;4993049;28;19924;-67
2021/01/17 13:40:51;;;;;;;;;;;;;;;;;;4990285;28;20334;-67
2021/01/17 13:43:17;;;;;;;;;;;;;;;;;;4995272;28;19996;-67
2021/01/17 13:45:43;;;;;;;;;;;;;;;;;;4992058;28;19944;-67
2021/01/17 14:07:04;;;;;;;275.55;213.88;;;;;;;;;;5098111;27;20499;-68
2021/01/17 14:09:30;;;;;;;275.30;207.07;;;;;;;;;;5085120;28;20021;-67
2021/01/17 14:11:56;;;;;;;276.30;217.70;;;;;;;;;;5079162;28;20603;-68
2021/01/17 14:14:22;;;;;;;1999.90;999.90;;;;;;;;;;5078736;28;20468;-66
2021/01/17 14:16:49;;;;;;;1999.90;999.90;;;;;;;;;;5091014;28;20074;-68
2021/01/17 14:19:15;;;;;;;274.77;215.50;;;;;;;;;;5088439;28;20028;-66
2021/01/17 14:21:47;;;;;;;1999.90;999.90;;;;;;;;;;5088102;28;20025;-66
2021/01/17 14:24:14;;;;;;;1999.90;999.90;;;;;;;;;;5086505;28;20104;-68
2021/01/17 14:26:41;;;;;;;1999.90;999.90;;;;;;;;;;5086314;28;20039;-66
2021/01/17 14:29:08;;;;;;;1999.90;999.90;;;;;;;;;;5082057;28;20103;-69
2021/01/17 14:31:34;;;;;;;1999.90;999.90;;;;;;;;;;5080078;28;20487;-67
2021/01/17 14:34:00;;;;;;;1999.90;999.90;;;;;;;;;;5088411;28;20046;-67
2021/01/17 14:36:30;;;;;;;1999.90;999.90;;;;;;;;;;5083016;28;20044;-67
2021/01/17 14:38:56;;;;;;;1999.90;999.90;;;;;;;;;;5078405;28;20029;-66
2021/01/17 14:41:23;;;;;;;1999.90;999.90;;;;;;;;;;5083853;28;20043;-66
2021/01/17 14:43:49;;;;;;;271.73;217.05;;;;;;;;;;5088134;28;20055;-66
2021/01/17 14:46:15;;;;;;;1999.90;999.90;;;;;;;;;;5082074;28;20040;-67
2021/01/17 14:48:41;;;;;;;1999.90;999.90;;;;;;;;;;5088747;28;20039;-67
2021/01/17 14:51:07;;;;;;;1999.90;999.90;;;;;;;;;;5091043;28;20181;-67
2021/01/17 14:53:33;;;;;;;1999.90;999.90;;;;;;;;;;5077638;28;20020;-67
2021/01/17 14:55:59;;;;;;;1999.90;999.90;;;;;;;;;;5092408;28;20516;-65
2021/01/17 14:58:25;;;;;;;1999.90;999.90;;;;;;;;;;5078507;28;20037;-66
2021/01/17 15:00:51;;;;;;;1999.90;999.90;;;;;;;;;;5086567;28;20062;-66
2021/01/17 15:03:17;;;;;;;1999.90;999.90;;;;;;;;;;5087975;28;20490;-66
2021/01/17 15:49:44;;;;;;;1999.90;999.90;;;;;;;;;;5108580;27;20371;-65
2021/01/17 15:52:12;;;;;;;263.92;188.20;;;;;;;;;;5100954;28;20491;-67
2021/01/17 15:54:38;;;;;;;266.38;191.25;;;;;;;;;;5098975;28;20085;-66
2021/01/17 15:57:04;;;;;;;275.98;221.85;;;;;;;;;;5103259;28;20028;-65
2021/01/17 15:59:30;;;;;;;276.67;217.60;;;;;;;;;;5096438;28;20032;-66
2021/01/17 16:01:56;;;;;;;277.35;198.00;;;;;;;;;;5111842;28;20475;-66
2021/01/17 16:04:22;;;;;;;1999.90;999.90;;;;;;;;;;5105442;28;20019;-67
2021/01/17 16:06:48;;;;;;;301.33;260.60;;;;;;;;;;5112083;28;20027;-66
2021/01/17 16:09:14;;;;;;;1999.90;999.90;;;;;;;;;;5109756;28;20058;-66
2021/01/17 16:11:40;;;;;;;299.45;265.02;;;;;;;;;;5113574;28;20027;-69
2021/01/17 16:14:06;;;;;;;292.98;253.65;;;;;;;;;;5107721;28;20053;-66
2021/01/17 16:16:34;;;;;;;288.85;238.88;;;;;;;;;;5106511;28;20031;-67
2021/01/17 16:19:00;;;;;;;1981.85;999.90;;;;;;;;;;5108322;28;20043;-68
2021/01/17 16:21:28;;;;;;;291.45;233.60;;;;;;;;;;5106700;28;20073;-67
2021/01/17 16:23:53;;;;;;;284.20;231.93;;;;;;;;;;5100508;28;20016;-66
2021/01/17 16:26:19;;;;;;;304.05;271.05;;;;;;;;;;5097168;28;20398;-65
2021/01/17 16:28:45;;;;;;;290.38;255.13;;;;;;;;;;5099619;28;20045;-66
2021/01/17 16:31:11;;;;;;;278.35;212.93;;;;;;;;;;5111502;28;20377;-66
2021/01/17 16:33:38;;;;;;;1969.78;999.90;;;;;;;;;;5108837;28;20032;-66
2021/01/17 16:36:05;;;;;;;289.63;242.85;;;;;;;;;;5112649;28;20062;-67
2021/01/17 16:38:31;;;;;;;295.13;262.02;;;;;;;;;;5107721;28;20058;-67
2021/01/17 16:40:57;;;;;;;285.95;244.68;;;;;;;;;;5088612;28;20028;-67
2021/01/17 16:43:22;;;;;;;291.33;256.45;;;;;;;;;;5089821;28;20095;-66
2021/01/17 16:45:48;;;;;;;289.30;253.27;;;;;;;;;;5083914;28;20155;-66
2021/01/17 16:48:14;;;;;;;778.30;695.67;;;;;;;;;;5085572;28;20035;-67
2021/01/17 16:50:40;;;;;;;291.33;257.65;;;;;;;;;;5087545;28;20060;-67
2021/01/17 16:53:06;;;;;;;300.65;268.00;;;;;;;;;;5089780;28;20033;-66
2021/01/17 16:55:32;;;;;;;318.52;284.92;;;;;;;;;;5085813;28;20430;-67
2021/01/17 16:57:58;;;;;;;1472.82;999.90;;;;;;;;;;5087747;28;20032;-66
2021/01/17 17:00:25;;;;;;;296.10;262.85;;;;;;;;;;5082351;28;20456;-66
2021/01/17 17:02:51;;;;;;;330.02;296.02;;;;;;;;;;5076316;28;20064;-68
2021/01/17 17:05:18;;;;;;;288.33;253.82;;;;;;;;;;5076684;28;20049;-66
2021/01/17 17:07:45;;;;;;;290.25;253.68;;;;;;;;;;5077191;28;20075;-67